Tel Aviv, Israel

9:21 PM IDT on August 29, 2014 (GMT +0300)
Ben-Shemen | Change Station
CLOSE
Current Station
Personal Weather Station
Location: Moshav 56 Maivar, SHFELA
Elevation: 197 ft
Nearby Weather Stations

Elev 197 ft 31.95 °N, 34.92 °E | Updated 2 minutes ago

Partly Cloudy
Partly Cloudy
78.8 °F
Feels Like 82 °F
N
0.0
Wind Variable Wind from NW
Gusts 0.0 mph

Today
High -- | Low -- °F
--% Chance of Precip.
Yesterday
High -- | Low -- °F
Precip. -- in
6:13 AM 7:08 PM
Waxing Crescent, 15% visible
Pressure 29.80 in
Visibility 6.2 miles
Clouds Few 2500 ft
Heat Index 82 °F
Dew Point 75 °F
Humidity 88%
Rainfall 0.00 in
Snow Depth Not available.
UV 0 out of 12
Pollen Not available.
Air Quality Not available.
Flu Activity Not available.
METAR LLBG 291750Z VRB03KT 9999 FEW025 28/22 Q1009 NOSIG

More Conditions Fewer Conditions

Pressure 29.80 in
Visibility 6.2 miles
Clouds Few 2500 ft
Heat Index 82 °F
Dew Point 75 °F
Humidity 88%
Rainfall 0.00 in
Snow Depth Not available.
UV 0 out of 12
Pollen Not available.
Air Quality Not available.
Flu Activity Not available.
METAR LLBG 291750Z VRB03KT 9999 FEW025 28/22 Q1009 NOSIG

More Conditions Fewer Conditions

10-Day Weather Forecast

Almanac

Astronomy

Aug. 29, 2014 Rise Set
Actual Time 6:13 AM IDT 7:08 PM IDT
Civil Twilight 5:48 AM IDT 7:33 PM IDT
Nautical Twilight 5:18 AM IDT 8:03 PM IDT
Astronomical Twilight 4:48 AM IDT 8:33 PM IDT
Moon 9:28 AM IDT 9:10 PM IDT
Length of Visible Light 13h 44m
Length of Day
12h 54m
Tomorrow will be 1m 52s shorter.
Waxing Crescent, 15% of the Moon is Illuminated
Today
Waxing Crescent
Sep 2
First Quarter
Sep 8
Full
Sep 15
Last Quarter
Sep 24
New

Today's Extremes

Country Highs Country Lows

Community

WunderPhotos

Upload Photos

1,748,310 photos uploaded!

Nearby

Snow Depth

Not available.

Earthquake Activity

City Distance Mag. Time & Date
No recent earthquake activity has been reported nearby.
Minimum magnitude displayed is 2.5.

Coastal Water Temperatures

Place Temperature
No Stations Reporting

Nearby Weather Stations